createdAt,value
2018-08-16T16:01:15.796Z,3.00
2018-08-16T16:03:44.005Z,2.95
2018-08-16T16:06:12.322Z,3.00
2018-08-16T16:08:40.390Z,3.00
2018-08-16T16:11:08.554Z,3.15
2018-08-16T16:13:36.866Z,2.87
2018-08-16T16:16:05.492Z,3.40
2018-08-16T16:18:33.702Z,4.08
2018-08-16T16:21:01.893Z,3.40
2018-08-16T16:23:30.572Z,2.80
2018-08-16T16:25:58.764Z,3.47
2018-08-16T16:28:27.925Z,3.35
2018-08-16T16:30:55.908Z,3.75
2018-08-16T16:33:24.032Z,3.25
2018-08-16T16:35:52.182Z,2.75
2018-08-16T16:38:20.242Z,3.02
2018-08-16T16:40:48.388Z,2.90
2018-08-16T16:43:16.683Z,2.98
2018-08-16T16:45:44.860Z,3.37
2018-08-16T16:48:13.055Z,3.62
2018-08-16T16:50:41.224Z,3.50
2018-08-16T16:53:09.373Z,3.13
2018-08-16T16:55:37.617Z,3.23
2018-08-16T16:58:06.104Z,3.77
2018-08-16T17:00:34.309Z,3.37
2018-08-16T17:03:02.469Z,3.83
2018-08-16T17:05:30.646Z,3.83
2018-08-16T17:07:58.786Z,3.77
2018-08-16T17:10:26.987Z,4.10
2018-08-16T17:12:55.129Z,3.60
2018-08-16T17:15:23.314Z,4.60
2018-08-16T17:17:51.513Z,5.03
2018-08-16T17:20:19.678Z,3.93
2018-08-16T17:22:47.611Z,3.80
2018-08-16T17:25:15.563Z,4.37
2018-08-16T17:27:43.749Z,3.20
2018-08-16T17:30:11.984Z,4.13
2018-08-16T17:32:40.145Z,3.07
2018-08-16T17:35:08.324Z,4.10
2018-08-16T17:37:36.517Z,3.50
2018-08-16T17:40:04.959Z,3.93
2018-08-16T17:42:33.154Z,4.47
2018-08-16T17:45:01.541Z,4.50
2018-08-16T17:47:29.473Z,5.80
2018-08-16T17:49:57.659Z,4.63
2018-08-16T17:52:25.827Z,4.77
2018-08-16T17:54:54.875Z,5.47
2018-08-16T17:57:23.033Z,5.03
2018-08-16T17:59:51.021Z,5.63
2018-08-16T18:02:19.193Z,6.20
2018-08-16T18:04:47.373Z,6.00
2018-08-16T18:07:16.128Z,4.87
2018-08-16T18:09:44.292Z,4.97
2018-08-16T18:12:12.494Z,5.70
2018-08-16T18:14:40.650Z,5.37
2018-08-16T18:17:08.876Z,6.10
2018-08-16T18:19:36.806Z,6.40
2018-08-16T18:22:04.733Z,6.13
2018-08-16T18:24:32.914Z,6.10
2018-08-16T18:27:01.102Z,6.40
2018-08-16T18:29:29.009Z,5.57
2018-08-16T18:31:57.189Z,6.40
2018-08-16T18:34:25.352Z,6.50
2018-08-16T18:36:53.741Z,5.97
2018-08-16T18:39:21.789Z,6.37
2018-08-16T18:41:49.972Z,6.40
2018-08-16T18:44:18.194Z,5.30
2018-08-16T18:46:46.385Z,6.00
2018-08-16T18:49:20.953Z,8.30
2018-08-16T18:51:49.129Z,6.87
2018-08-16T18:54:17.294Z,7.23
2018-08-16T18:56:45.573Z,7.20
2018-08-16T18:59:13.769Z,7.50
2018-08-16T19:01:41.981Z,8.63
2018-08-16T19:04:10.147Z,9.80
2018-08-16T19:06:38.342Z,9.53
2018-08-16T19:09:06.921Z,8.47
2018-08-16T19:11:35.101Z,8.53
2018-08-16T19:14:03.358Z,8.87
2018-08-16T19:16:31.540Z,7.20
2018-08-16T19:18:59.717Z,8.17
2018-08-16T19:21:27.905Z,8.10
2018-08-16T19:23:56.097Z,7.90
2018-08-16T19:26:24.391Z,8.20
2018-08-16T19:28:52.610Z,6.80
2018-08-16T19:31:20.525Z,8.30
2018-08-16T19:33:48.733Z,8.20
2018-08-16T19:36:16.945Z,8.33
2018-08-16T19:38:45.092Z,8.43
2018-08-16T19:41:13.308Z,8.97
2018-08-16T19:43:41.487Z,8.57
2018-08-16T19:46:09.689Z,8.80
2018-08-16T19:48:38.236Z,9.43
2018-08-16T19:51:06.372Z,9.00
2018-08-16T19:53:34.304Z,7.73
2018-08-16T19:56:02.468Z,8.70
2018-08-16T19:58:30.664Z,8.87
2018-08-16T20:00:59.268Z,9.30
2018-08-16T20:03:27.909Z,8.70
2018-08-16T20:05:56.096Z,8.57
2018-08-16T20:08:24.023Z,8.90
2018-08-16T20:10:52.255Z,9.40
2018-08-16T20:13:20.196Z,9.27
2018-08-16T20:15:48.354Z,9.00
2018-08-16T20:18:16.588Z,9.17
2018-08-16T20:20:44.695Z,7.43
2018-08-16T20:23:12.910Z,8.43
2018-08-16T20:25:41.058Z,8.10
2018-08-16T20:28:09.254Z,7.80
2018-08-16T20:30:37.426Z,8.00
2018-08-16T20:33:05.352Z,8.70
2018-08-16T20:35:33.527Z,8.03
2018-08-16T20:38:01.922Z,8.00
2018-08-16T20:40:30.093Z,8.13
2018-08-16T20:42:58.347Z,8.77
2018-08-16T20:45:26.530Z,8.33
2018-08-16T20:47:54.701Z,7.93
2018-08-16T20:50:22.893Z,9.20
2018-08-16T20:52:51.585Z,8.93
2018-08-16T20:55:19.818Z,9.70
2018-08-16T20:57:47.997Z,8.63
2018-08-16T21:00:16.177Z,8.50
2018-08-16T21:02:44.366Z,8.83
2018-08-16T21:05:12.525Z,8.30
2018-08-16T21:07:40.727Z,9.83
2018-08-16T21:10:09.604Z,8.90
2018-08-16T21:12:37.788Z,8.53
2018-08-16T21:15:06.275Z,9.70
2018-08-16T21:17:34.369Z,8.10
2018-08-16T21:20:02.297Z,8.63
2018-08-16T21:22:30.488Z,9.10
2018-08-16T21:24:58.673Z,9.40
2018-08-16T21:27:26.837Z,8.77
2018-08-16T21:29:55.067Z,9.83
2018-08-16T21:32:23.253Z,9.93
2018-08-16T21:34:51.441Z,8.37
2018-08-16T21:38:22.517Z,9.33
2018-08-16T21:40:50.688Z,8.77
2018-08-16T21:43:18.873Z,9.67
2018-08-16T21:45:47.048Z,9.40
2018-08-16T21:48:14.992Z,8.80
2018-08-16T21:50:43.196Z,7.83
2018-08-16T21:53:11.403Z,10.03
2018-08-16T21:55:39.576Z,10.63
2018-08-16T21:58:07.775Z,9.70
